DISCUS EPBY-EPBY
Flight info
| Callsign | DISCUS |
|---|---|
| Flight time | 0h 46m |
| Altitude | 5000 |
| Route | EPBY/EPBY |
| Aircraft | GLID/L-GVYS/S |
Departure
| Time | 2026-04-30 10:51 |
|---|---|
| Airport | Ignacy Jan Paderewski Bydgoszcz Airport (EPBY) |
Arrival
| Time | 2026-04-30 11:38 |
|---|---|
| Airport | Ignacy Jan Paderewski Bydgoszcz Airport (EPBY) |
| Time | Latitude | Longitude | Altitude | Speed | Heading |
|---|---|---|---|---|---|
| 2026-04-30 10:49 | 53.10567 | 17.96885 | 217 ft | 0 kts | 275° |
| 2026-04-30 10:51 | 53.10586 | 17.96469 | 896 ft | 58 kts | 279° |
| 2026-04-30 10:51 | 53.10563 | 17.95739 | 1687 ft | 56 kts | 285° |
| 2026-04-30 10:52 | 53.10381 | 17.95161 | 1810 ft | 69 kts | 172° |
| 2026-04-30 10:52 | 53.10386 | 17.95281 | 1924 ft | 56 kts | 282° |
| 2026-04-30 10:52 | 53.10134 | 17.95288 | 2055 ft | 43 kts | 54° |
| 2026-04-30 10:52 | 53.10052 | 17.95110 | 2138 ft | 65 kts | 142° |
| 2026-04-30 10:53 | 53.10130 | 17.95271 | 2251 ft | 56 kts | 283° |
| 2026-04-30 10:53 | 53.09921 | 17.95261 | 2357 ft | 44 kts | 8° |
| 2026-04-30 10:53 | 53.09768 | 17.95071 | 2575 ft | 51 kts | 83° |
| 2026-04-30 10:53 | 53.09770 | 17.94858 | 2670 ft | 73 kts | 191° |
| 2026-04-30 10:54 | 53.09740 | 17.95018 | 2764 ft | 57 kts | 295° |
| 2026-04-30 10:54 | 53.09434 | 17.94855 | 2861 ft | 52 kts | 77° |
| 2026-04-30 10:54 | 53.09436 | 17.94638 | 2982 ft | 75 kts | 172° |
| 2026-04-30 10:54 | 53.09490 | 17.94931 | 3138 ft | 40 kts | 7° |
| 2026-04-30 10:55 | 53.09766 | 17.94945 | 3333 ft | 39 kts | 357° |
| 2026-04-30 10:55 | 53.10016 | 17.94862 | 3467 ft | 33 kts | 350° |
| 2026-04-30 10:55 | 53.10171 | 17.94627 | 3470 ft | 66 kts | 235° |
| 2026-04-30 10:55 | 53.09964 | 17.94936 | 3489 ft | 36 kts | 19° |
| 2026-04-30 10:56 | 53.09782 | 17.94735 | 3514 ft | 68 kts | 115° |
| 2026-04-30 10:56 | 53.09837 | 17.94771 | 3647 ft | 60 kts | 231° |
| 2026-04-30 10:56 | 53.09645 | 17.94909 | 3756 ft | 33 kts | 344° |
| 2026-04-30 10:56 | 53.09443 | 17.94861 | 3856 ft | 42 kts | 53° |
| 2026-04-30 10:57 | 53.09376 | 17.94654 | 3996 ft | 65 kts | 141° |
| 2026-04-30 10:57 | 53.09423 | 17.94723 | 4061 ft | 62 kts | 247° |
| 2026-04-30 10:57 | 53.09248 | 17.94874 | 4108 ft | 35 kts | 22° |
| 2026-04-30 10:57 | 53.09541 | 17.94891 | 4181 ft | 45 kts | 358° |
| 2026-04-30 10:58 | 53.09848 | 17.94792 | 4219 ft | 48 kts | 358° |
| 2026-04-30 10:58 | 53.09871 | 17.95088 | 4312 ft | 78 kts | 177° |
| 2026-04-30 10:58 | 53.09800 | 17.94681 | 4379 ft | 46 kts | 26° |
| 2026-04-30 10:58 | 53.09512 | 17.94892 | 4486 ft | 73 kts | 240° |
| 2026-04-30 10:59 | 53.09625 | 17.94705 | 4546 ft | 58 kts | 79° |
| 2026-04-30 10:59 | 53.09315 | 17.94569 | 4614 ft | 61 kts | 308° |
| 2026-04-30 10:59 | 53.09305 | 17.94831 | 4697 ft | 76 kts | 171° |
| 2026-04-30 10:59 | 53.09128 | 17.94311 | 4669 ft | 50 kts | 349° |
| 2026-04-30 11:00 | 53.09482 | 17.94341 | 4648 ft | 52 kts | 9° |
| 2026-04-30 11:00 | 53.09837 | 17.94405 | 4751 ft | 51 kts | 7° |
| 2026-04-30 11:00 | 53.10182 | 17.94455 | 4746 ft | 49 kts | 7° |
| 2026-04-30 11:00 | 53.10515 | 17.94514 | 4714 ft | 48 kts | 8° |
| 2026-04-30 11:01 | 53.10850 | 17.94589 | 4657 ft | 49 kts | 10° |
| 2026-04-30 11:01 | 53.11192 | 17.94678 | 4611 ft | 50 kts | 11° |
| 2026-04-30 11:01 | 53.11531 | 17.94769 | 4559 ft | 49 kts | 11° |
| 2026-04-30 11:01 | 53.11880 | 17.94864 | 4474 ft | 52 kts | 11° |
| 2026-04-30 11:02 | 53.12233 | 17.94959 | 4527 ft | 50 kts | 12° |
| 2026-04-30 11:02 | 53.12563 | 17.95054 | 4602 ft | 48 kts | 12° |
| 2026-04-30 11:02 | 53.12802 | 17.95299 | 4709 ft | 57 kts | 101° |
| 2026-04-30 11:02 | 53.12510 | 17.95105 | 4765 ft | 49 kts | 323° |
| 2026-04-30 11:03 | 53.12501 | 17.95347 | 4806 ft | 72 kts | 165° |
| 2026-04-30 11:03 | 53.12299 | 17.94932 | 4863 ft | 36 kts | 360° |
| 2026-04-30 11:03 | 53.12132 | 17.95148 | 4870 ft | 72 kts | 214° |
| 2026-04-30 11:04 | 53.12456 | 17.94904 | 4849 ft | 47 kts | 21° |
| 2026-04-30 11:04 | 53.12700 | 17.95168 | 4933 ft | 40 kts | 38° |
| 2026-04-30 11:04 | 53.12945 | 17.95456 | 4945 ft | 47 kts | 26° |
| 2026-04-30 11:04 | 53.13259 | 17.95656 | 4941 ft | 48 kts | 13° |
| 2026-04-30 11:05 | 53.13584 | 17.95724 | 4940 ft | 47 kts | 9° |
| 2026-04-30 11:05 | 53.13924 | 17.95775 | 4916 ft | 50 kts | 6° |
| 2026-04-30 11:05 | 53.14269 | 17.95774 | 4911 ft | 49 kts | 4° |
| 2026-04-30 11:05 | 53.14608 | 17.95762 | 4932 ft | 46 kts | 1° |
| 2026-04-30 11:06 | 53.14947 | 17.95752 | 4884 ft | 53 kts | 1° |
| 2026-04-30 11:06 | 53.15330 | 17.95716 | 4816 ft | 56 kts | 356° |
| 2026-04-30 11:06 | 53.15699 | 17.95614 | 4811 ft | 51 kts | 356° |
| 2026-04-30 11:06 | 53.16044 | 17.95566 | 4851 ft | 51 kts | 358° |
| 2026-04-30 11:07 | 53.16406 | 17.95468 | 4803 ft | 56 kts | 354° |
| 2026-04-30 11:07 | 53.16792 | 17.95346 | 4726 ft | 58 kts | 359° |
| 2026-04-30 11:07 | 53.17188 | 17.95355 | 4816 ft | 56 kts | 4° |
| 2026-04-30 11:07 | 53.17568 | 17.95333 | 4862 ft | 55 kts | 358° |
| 2026-04-30 11:08 | 53.17954 | 17.95356 | 4860 ft | 56 kts | 2° |
| 2026-04-30 11:08 | 53.18343 | 17.95356 | 4807 ft | 56 kts | 5° |
| 2026-04-30 11:08 | 53.18724 | 17.95396 | 4895 ft | 52 kts | 7° |
| 2026-04-30 11:08 | 53.18640 | 17.95812 | 5060 ft | 75 kts | 196° |
| 2026-04-30 11:09 | 53.18567 | 17.95273 | 5150 ft | 47 kts | 342° |
| 2026-04-30 11:09 | 53.18658 | 17.95606 | 5170 ft | 69 kts | 126° |
| 2026-04-30 11:09 | 53.18243 | 17.95391 | 5269 ft | 67 kts | 278° |
| 2026-04-30 11:09 | 53.18464 | 17.95115 | 5272 ft | 46 kts | 54° |
| 2026-04-30 11:10 | 53.18183 | 17.95339 | 5291 ft | 65 kts | 253° |
| 2026-04-30 11:10 | 53.18323 | 17.95071 | 5274 ft | 41 kts | 19° |
| 2026-04-30 11:10 | 53.18624 | 17.95153 | 5232 ft | 46 kts | 11° |
| 2026-04-30 11:10 | 53.18943 | 17.95278 | 5181 ft | 48 kts | 17° |
| 2026-04-30 11:11 | 53.19268 | 17.95404 | 5118 ft | 50 kts | 7° |
| 2026-04-30 11:11 | 53.19611 | 17.95462 | 5183 ft | 48 kts | 8° |
| 2026-04-30 11:11 | 53.19937 | 17.95550 | 5195 ft | 48 kts | 8° |
| 2026-04-30 11:11 | 53.20277 | 17.95632 | 5137 ft | 50 kts | 10° |
| 2026-04-30 11:12 | 53.20625 | 17.95746 | 5086 ft | 53 kts | 9° |
| 2026-04-30 11:12 | 53.21001 | 17.95799 | 5020 ft | 56 kts | 7° |
| 2026-04-30 11:12 | 53.21394 | 17.95842 | 4967 ft | 57 kts | 6° |
| 2026-04-30 11:12 | 53.21777 | 17.95890 | 5093 ft | 52 kts | 7° |
| 2026-04-30 11:13 | 53.22121 | 17.95943 | 5136 ft | 49 kts | 8° |
| 2026-04-30 11:13 | 53.22469 | 17.95985 | 5113 ft | 50 kts | 6° |
| 2026-04-30 11:13 | 53.22809 | 17.95989 | 5260 ft | 48 kts | 338° |
| 2026-04-30 11:13 | 53.22675 | 17.95412 | 5268 ft | 71 kts | 188° |
| 2026-04-30 11:14 | 53.22559 | 17.95713 | 5308 ft | 46 kts | 347° |
| 2026-04-30 11:14 | 53.22408 | 17.95204 | 5302 ft | 78 kts | 176° |
| 2026-04-30 11:14 | 53.22264 | 17.95665 | 5261 ft | 48 kts | 22° |
| 2026-04-30 11:14 | 53.22618 | 17.95736 | 5330 ft | 51 kts | 6° |
| 2026-04-30 11:15 | 53.22949 | 17.95744 | 5303 ft | 53 kts | 5° |
| 2026-04-30 11:15 | 53.23325 | 17.95765 | 5277 ft | 53 kts | 1° |
| 2026-04-30 11:15 | 53.23678 | 17.95762 | 5340 ft | 50 kts | 5° |
| 2026-04-30 11:15 | 53.24053 | 17.95826 | 5257 ft | 57 kts | 8° |
| 2026-04-30 11:16 | 53.24439 | 17.95889 | 5223 ft | 56 kts | 7° |
| 2026-04-30 11:16 | 53.24825 | 17.95936 | 5169 ft | 56 kts | 5° |
| 2026-04-30 11:16 | 53.25223 | 17.95971 | 5112 ft | 59 kts | 6° |
| 2026-04-30 11:16 | 53.25622 | 17.96009 | 5073 ft | 57 kts | 5° |
| 2026-04-30 11:17 | 53.26006 | 17.96036 | 5056 ft | 54 kts | 5° |
| 2026-04-30 11:17 | 53.26370 | 17.96097 | 5016 ft | 52 kts | 8° |
| 2026-04-30 11:17 | 53.26746 | 17.96183 | 4930 ft | 57 kts | 9° |
| 2026-04-30 11:17 | 53.27119 | 17.96251 | 5055 ft | 49 kts | 7° |
| 2026-04-30 11:18 | 53.27480 | 17.96318 | 5088 ft | 54 kts | 8° |
| 2026-04-30 11:18 | 53.28274 | 17.96398 | 5201 ft | 63 kts | 3° |
| 2026-04-30 11:18 | 53.28717 | 17.96401 | 5250 ft | 64 kts | 3° |
| 2026-04-30 11:19 | 53.29133 | 17.96376 | 5394 ft | 56 kts | 4° |
| 2026-04-30 11:19 | 53.29382 | 17.96413 | 5432 ft | 51 kts | 8° |
| 2026-04-30 11:19 | 53.29721 | 17.96482 | 5399 ft | 49 kts | 9° |
| 2026-04-30 11:19 | 53.30086 | 17.96551 | 5291 ft | 58 kts | 8° |
| 2026-04-30 11:20 | 53.30510 | 17.96636 | 5221 ft | 60 kts | 8° |
| 2026-04-30 11:20 | 53.30905 | 17.96743 | 5267 ft | 55 kts | 13° |
| 2026-04-30 11:20 | 53.31310 | 17.96913 | 5255 ft | 62 kts | 12° |
| 2026-04-30 11:20 | 53.31723 | 17.97064 | 5249 ft | 60 kts | 11° |
| 2026-04-30 11:21 | 53.32154 | 17.97205 | 5133 ft | 66 kts | 11° |
| 2026-04-30 11:21 | 53.32545 | 17.97305 | 5277 ft | 48 kts | 9° |
| 2026-04-30 11:21 | 53.32850 | 17.97345 | 5339 ft | 45 kts | 4° |
| 2026-04-30 11:21 | 53.33171 | 17.97362 | 5357 ft | 46 kts | 5° |
| 2026-04-30 11:22 | 53.33500 | 17.97393 | 5393 ft | 48 kts | 5° |
| 2026-04-30 11:22 | 53.33849 | 17.97395 | 5321 ft | 52 kts | 4° |
| 2026-04-30 11:22 | 53.34204 | 17.97423 | 5297 ft | 52 kts | 6° |
| 2026-04-30 11:22 | 53.34501 | 17.97287 | 5492 ft | 58 kts | 278° |
| 2026-04-30 11:23 | 53.34196 | 17.97295 | 5614 ft | 47 kts | 70° |
| 2026-04-30 11:23 | 53.34294 | 17.97074 | 5655 ft | 75 kts | 245° |
| 2026-04-30 11:23 | 53.34085 | 17.97517 | 5705 ft | 44 kts | 13° |
| 2026-04-30 11:24 | 53.34269 | 17.97227 | 5734 ft | 74 kts | 250° |
| 2026-04-30 11:24 | 53.33815 | 17.97301 | 5716 ft | 72 kts | 107° |
| 2026-04-30 11:24 | 53.33597 | 17.97995 | 5704 ft | 65 kts | 101° |
| 2026-04-30 11:25 | 53.33217 | 17.99300 | 5649 ft | 68 kts | 134° |
| 2026-04-30 11:25 | 53.32697 | 17.99305 | 5565 ft | 82 kts | 185° |
| 2026-04-30 11:25 | 53.31526 | 17.99130 | 5452 ft | 85 kts | 184° |
| 2026-04-30 11:26 | 53.30360 | 17.98918 | 5360 ft | 84 kts | 186° |
| 2026-04-30 11:26 | 53.29788 | 17.98794 | 5329 ft | 82 kts | 188° |
| 2026-04-30 11:26 | 53.29217 | 17.98675 | 5280 ft | 84 kts | 185° |
| 2026-04-30 11:27 | 53.28633 | 17.98568 | 5233 ft | 84 kts | 184° |
| 2026-04-30 11:27 | 53.28050 | 17.98465 | 5224 ft | 83 kts | 184° |
| 2026-04-30 11:27 | 53.27474 | 17.98355 | 5182 ft | 84 kts | 185° |
| 2026-04-30 11:27 | 53.26891 | 17.98240 | 5128 ft | 84 kts | 185° |
| 2026-04-30 11:28 | 53.25712 | 17.98099 | 5082 ft | 84 kts | 176° |
| 2026-04-30 11:28 | 53.25137 | 17.98074 | 5050 ft | 83 kts | 181° |
| 2026-04-30 11:28 | 53.24547 | 17.98025 | 4980 ft | 86 kts | 180° |
| 2026-04-30 11:29 | 53.23968 | 17.97945 | 4964 ft | 84 kts | 181° |
| 2026-04-30 11:29 | 53.23382 | 17.97868 | 4930 ft | 84 kts | 182° |
| 2026-04-30 11:29 | 53.22160 | 17.97728 | 4823 ft | 90 kts | 181° |
| 2026-04-30 11:30 | 53.20895 | 17.97610 | 4886 ft | 91 kts | 181° |
| 2026-04-30 11:30 | 53.20261 | 17.97543 | 4918 ft | 91 kts | 181° |
| 2026-04-30 11:30 | 53.19639 | 17.97494 | 4943 ft | 88 kts | 180° |
| 2026-04-30 11:31 | 53.19017 | 17.97448 | 4901 ft | 86 kts | 181° |
| 2026-04-30 11:31 | 53.18431 | 17.97402 | 4886 ft | 85 kts | 181° |
| 2026-04-30 11:31 | 53.17817 | 17.97349 | 4783 ft | 92 kts | 181° |
| 2026-04-30 11:31 | 53.17154 | 17.97307 | 4673 ft | 97 kts | 180° |
| 2026-04-30 11:32 | 53.16470 | 17.97301 | 4635 ft | 99 kts | 177° |
| 2026-04-30 11:32 | 53.15788 | 17.97311 | 4625 ft | 97 kts | 178° |
| 2026-04-30 11:32 | 53.15154 | 17.97091 | 4642 ft | 91 kts | 197° |
| 2026-04-30 11:33 | 53.13898 | 17.96551 | 4495 ft | 100 kts | 192° |
| 2026-04-30 11:33 | 53.13181 | 17.96349 | 4338 ft | 109 kts | 187° |
| 2026-04-30 11:33 | 53.12405 | 17.96212 | 4220 ft | 114 kts | 183° |
| 2026-04-30 11:33 | 53.11640 | 17.96151 | 4238 ft | 107 kts | 181° |
| 2026-04-30 11:34 | 53.10919 | 17.96133 | 4212 ft | 102 kts | 180° |
| 2026-04-30 11:34 | 53.10212 | 17.96152 | 4163 ft | 101 kts | 174° |
| 2026-04-30 11:34 | 53.09793 | 17.96260 | 4311 ft | 70 kts | 101° |
| 2026-04-30 11:34 | 53.10030 | 17.96345 | 4444 ft | 17 kts | 351° |
| 2026-04-30 11:35 | 53.10256 | 17.96405 | 4364 ft | 21 kts | 2° |
| 2026-04-30 11:35 | 53.10480 | 17.96333 | 4036 ft | 30 kts | 358° |
| 2026-04-30 11:35 | 53.10655 | 17.96145 | 3821 ft | 52 kts | 357° |
| 2026-04-30 11:35 | 53.10530 | 17.96121 | 3952 ft | 18 kts | 268° |
| 2026-04-30 11:36 | 53.10692 | 17.95910 | 3485 ft | 53 kts | 43° |
| 2026-04-30 11:36 | 53.10705 | 17.96741 | 2949 ft | 85 kts | 82° |
| 2026-04-30 11:36 | 53.11013 | 17.97438 | 2226 ft | 81 kts | 12° |
| 2026-04-30 11:36 | 53.11280 | 17.98216 | 1430 ft | 82 kts | 86° |
| 2026-04-30 11:37 | 53.11047 | 17.99116 | 1262 ft | 99 kts | 171° |
| 2026-04-30 11:37 | 53.10765 | 17.98182 | 755 ft | 117 kts | 265° |
| 2026-04-30 11:37 | 53.10699 | 17.96807 | 224 ft | 119 kts | 264° |
| 2026-04-30 11:37 | 53.10679 | 17.95561 | 291 ft | 88 kts | 290° |
| 2026-04-30 11:38 | 53.10866 | 17.95116 | 635 ft | 48 kts | 249° |
| 2026-04-30 11:38 | 53.10648 | 17.95560 | 432 ft | 77 kts | 91° |
| 2026-04-30 11:38 | 53.10614 | 17.96376 | 219 ft | 58 kts | 90° |
| 2026-04-30 11:38 | 53.10596 | 17.96850 | 217 ft | 12 kts | 99° |
| 2026-04-30 11:39 | 53.10594 | 17.96876 | 217 ft | 0 kts | 95° |